Lincoln, NE

6:54 PM CDT on September 04, 2015 (GMT -0500)
Capitol Beach | | Change Station
CLOSE
Current Station
Personal Weather Station
Location: Lincoln, NE
Elevation: 1134 ft
Nearby Weather Stations

Elev 1134 ft 40.82 °N, 96.73 °W | Updated 25 seconds ago

Clear
Clear
88.3 °F
Feels Like 89 °F
N
4.0
Wind Variable Wind from South
Gusts 13.0 mph

Today
High -- | Low -- °F
--% Chance of Precip.
Yesterday
High -- | Low -- °F
Precip. -- in
6:56 AM 7:54 PM
Waning Gibbous, 55% visible
Pressure 29.80 in
Visibility 10.0 miles
Clouds Clear
Heat Index 89 °F
Dew Point 62 °F
Humidity 42%
Rainfall 0.04 in
Snow Depth Not available.
UV 2 out of 12
Pollen 11.20 out of 12
Air Quality Not available.
Flu Activity Not available.
METAR KLNK 042254Z 18013KT 10SM CLR 32/19 A2984 RMK AO2 PK WND 17027/2209 SLP089 T03220189
Pressure 29.80 in
Visibility 10.0 miles
Clouds Clear
Heat Index 89 °F
Dew Point 62 °F
Humidity 42%
Rainfall 0.04 in
Snow Depth Not available.
UV 2 out of 12
Pollen 11.20 out of 12
Air Quality Not available.
Flu Activity Not available.
METAR KLNK 042254Z 18013KT 10SM CLR 32/19 A2984 RMK AO2 PK WND 17027/2209 SLP089 T03220189

10-Day Weather Forecast

×

Almanac

Astronomy

Sep. 04, 2015 Rise Set
Actual Time
Civil Twilight
Nautical Twilight
Astronomical Twilight
Moon
Length of Visible Light
Length of Day
Tomorrow will be .
, % of the Moon is Illuminated

Today's Extremes

State Highs State Lows

Community

WunderPhotos

Upload Photos

1,852,338 photos uploaded!

WunderBlogs® & News

Nearby

Air Quality

  Air Quality AQ Index Pollutant
Not available.

Snow Depth

Station Depth Elevation

Earthquake Activity

City Distance Mag. Time & Date
Minimum magnitude displayed is 2.5.

Coastal Water Temperatures

Place Temperature

Stations

Nearby Weather Stations

Station Location Temp. Windchill Dew Point Humidity Wind Precip. Elev Updated Type